Bella Una — WDF6443 — position and weather

sailwx.info

Track history (hours):
 
Tides and Currents Weather Stations Pressure Air Temp Water Temp Dewpoint Dewpoint Depression Visibility Wind Speed Wind Dir Waves Ship Positions

Bella Una

Owner: Bella Una, LLC, Fort Lauderdale, FL. More information available from US FCC via Universal Licensing System and Coast Guard Vessel Documentation Center.

Last reported at 2016-May-28 18:13 UTC. Time now 2016-May-29 03:56 UTC.
Position N 42°22' W 071°03'.

Length 39 m; draft 2.2 m.

Type: Pleasure craft. MMSI: 366609000.

Date/timePositionNaut miles runAvg speedWind from/ knotsBaromVisibWave heightAir tempDewpointWater temp
2016-May-28 18:13N 42°22' W 071°03'0 0.0
2016-May-28 17:31N 42°22' W 071°03'0 0.0
2016-May-28 16:25N 42°22' W 071°03'0 0.0
2016-May-28 14:31N 42°22' W 071°03'0 0.0
2016-May-28 13:31N 42°22' W 071°03'0 0.0
2016-May-28 12:31N 42°22' W 071°03'0 0.0
2016-May-28 11:31N 42°22' W 071°03'0 0.0
2016-May-28 04:13N 42°22' W 071°03'0 0.0
2016-May-28 03:31N 42°22' W 071°03'0 0.0
2016-May-28 02:31N 42°22' W 071°03'0 0.0
2016-May-28 01:25N 42°22' W 071°03'0 0.0
2016-May-28 00:25N 42°22' W 071°03'0 0.0
2016-May-27 17:22N 42°22' W 071°03'0 0.3
2016-May-27 16:31N 42°22' W 071°03'0 0.3
2016-May-27 15:31N 42°22' W 071°03'0 0.0
2016-May-27 14:31N 42°22' W 071°03'0 0.0
2016-May-27 13:31N 42°22' W 071°03'0 0.0
2016-May-27 12:31N 42°22' W 071°03'0 0.0
2016-May-27 11:31N 42°22' W 071°03'0 0.0
2016-May-27 10:25N 42°22' W 071°03'0 0.0
2016-May-27 05:31N 42°22' W 071°03'0 0.0
2016-May-27 04:31N 42°22' W 071°03'0 0.0
2016-May-27 03:25N 42°22' W 071°03'0 0.0
2016-May-27 02:25N 42°22' W 071°03'0 0.0
2016-May-27 01:31N 42°22' W 071°03'0 0.0
2016-May-27 00:25N 42°22' W 071°03'0 0.0
2016-May-26 23:31N 42°22' W 071°03'0 0.0
2016-May-26 22:34N 42°22' W 071°03'0 0.0
2016-May-26 21:33N 42°22' W 071°03'0 0.0
2016-May-26 20:32N 42°22' W 071°03'0 0.0
2016-May-26 19:33N 42°22' W 071°03'0 0.0
2016-May-26 18:34N 42°22' W 071°03'0 0.0
2016-May-26 17:33N 42°22' W 071°03'0 0.4
2016-May-26 16:33N 42°22' W 071°03'0 0.4
2016-May-26 15:33N 42°22' W 071°03'0 0.0
2016-May-26 14:33N 42°22' W 071°03'0 0.0
2016-May-26 13:33N 42°22' W 071°03'0 0.0
2016-May-26 12:33N 42°22' W 071°03'0 0.0
2016-May-26 11:31N 42°22' W 071°03'0 0.0
2016-May-26 10:33N 42°22' W 071°03'0 0.0
2016-May-26 09:33N 42°22' W 071°03'0 0.0
2016-May-26 08:33N 42°22' W 071°03'0 0.0
2016-May-26 07:34N 42°22' W 071°03'0 0.0
2016-May-26 06:33N 42°22' W 071°03'0 0.0
2016-May-26 05:34N 42°22' W 071°03'0 0.0
2016-May-26 04:33N 42°22' W 071°03'0 0.0
2016-May-26 03:33N 42°22' W 071°03'0 0.0
2016-May-26 02:33N 42°22' W 071°03'0 0.0
2016-May-26 01:33N 42°22' W 071°03'0 0.0
2016-May-26 00:33N 42°22' W 071°03'0 0.0
2016-May-25 23:33N 42°22' W 071°03'1 0.6
2016-May-25 22:33N 42°21' W 071°02'10 9.7
2016-May-25 21:33N 42°19' W 070°50'20310.4
2016-May-25 02:05N 39°47' W 073°49'712.7
2016-May-25 01:33N 39°42' W 073°55'1312.9
2016-May-25 00:33N 39°32' W 074°05'1612.7
2016-May-24 23:16N 39°19' W 074°18'43 8.7
2016-May-24 18:19N 39°05' W 075°11'1013.1
2016-May-24 17:34N 39°14' W 075°18'1211.6
2016-May-24 16:33N 39°22' W 075°28'10 9.8
2016-May-24 15:33N 39°31' W 075°33'1010.5
2016-May-24 14:34N 39°32' W 075°47'1212.5
2016-May-24 13:33N 39°26' W 076°01'1313.2
2016-May-24 12:33N 39°17' W 076°14'1210.4
2016-May-24 11:26N 39°11' W 076°26'910.5
2016-May-24 10:33N 39°17' W 076°35'1 1.1
2016-May-24 09:30N 39°17' W 076°36'0 0.0
2016-May-24 08:33N 39°17' W 076°36'0 0.1
2016-May-24 07:33N 39°17' W 076°36'0 0.1
2016-May-24 06:33N 39°17' W 076°36'0 0.0
2016-May-24 05:33N 39°17' W 076°36'0 0.0
2016-May-24 04:30N 39°17' W 076°36'0 0.0
2016-May-24 03:33N 39°17' W 076°36'0 0.0
2016-May-24 02:30N 39°17' W 076°36'0 0.0
2016-May-24 01:30N 39°17' W 076°36'0 0.0
2016-May-24 00:33N 39°17' W 076°36'0 0.0
2016-May-23 23:30N 39°17' W 076°36'0 0.0
2016-May-23 22:30N 39°17' W 076°36'0 0.0
2016-May-23 21:27N 39°17' W 076°36'0 0.0
2016-May-23 20:30N 39°17' W 076°36'0 0.0
2016-May-23 19:30N 39°17' W 076°36'0 0.0
2016-May-23 18:30N 39°17' W 076°36'0 0.0
2016-May-23 17:33N 39°17' W 076°36'0 0.0
2016-May-23 16:24N 39°17' W 076°36'0 0.0
2016-May-23 15:30N 39°17' W 076°36'0 0.0
2016-May-23 14:30N 39°17' W 076°36'0 0.0
2016-May-23 13:33N 39°17' W 076°36'0 0.0
2016-May-23 12:12N 39°17' W 076°36'0 0.0
2016-May-22 20:06N 39°17' W 076°36'0 0.0
2016-May-22 19:33N 39°17' W 076°36'0 0.0
2016-May-22 18:33N 39°17' W 076°36'0 0.0
2016-May-22 17:30N 39°17' W 076°36'0 0.0
2016-May-22 16:30N 39°17' W 076°36'0 0.0
2016-May-22 15:30N 39°17' W 076°36'0 0.0
2016-May-22 14:06N 39°17' W 076°36'0 0.0
2016-May-22 13:30N 39°17' W 076°36'0 0.0
2016-May-22 12:30N 39°17' W 076°36'0 0.0
2016-May-22 11:30N 39°17' W 076°36'0 0.1
2016-May-22 10:24N 39°17' W 076°36'0 0.1
2016-May-22 09:30N 39°17' W 076°36'0 0.0
2016-May-22 08:27N 39°17' W 076°36'0 0.0
2016-May-22 07:24N 39°17' W 076°36'0 0.0
2016-May-22 06:24N 39°17' W 076°36'0 0.0
2016-May-22 05:33N 39°17' W 076°36'0 0.0
2016-May-22 04:24N 39°17' W 076°36'0 0.0
2016-May-22 03:06N 39°17' W 076°36'0 0.1
2016-May-22 02:24N 39°17' W 076°36'0 0.1
2016-May-22 01:12N 39°17' W 076°36'0 0.0
2016-May-22 00:30N 39°17' W 076°36'0 0.0
2016-May-21 23:33N 39°17' W 076°36'0 0.0
2016-May-21 22:30N 39°17' W 076°36'0 0.0
2016-May-21 21:24N 39°17' W 076°36'0 0.0
2016-May-21 20:30N 39°17' W 076°36'0 0.0
2016-May-21 19:30N 39°17' W 076°36'0 0.1
2016-May-21 18:30N 39°17' W 076°36'0 0.1
2016-May-21 17:33N 39°17' W 076°36'0 0.0
2016-May-21 16:30N 39°17' W 076°36'0 0.0
2016-May-21 15:33N 39°17' W 076°36'0 0.0
2016-May-21 14:30N 39°17' W 076°36'0 0.0
2016-May-21 13:33N 39°17' W 076°36'0 0.0
2016-May-21 12:18N 39°17' W 076°36'0 0.1
2016-May-21 11:18N 39°17' W 076°36'0 0.1
2016-May-21 10:30N 39°17' W 076°36'0 0.0
2016-May-21 09:30N 39°17' W 076°36'0 0.0
2016-May-21 08:33N 39°17' W 076°36'0 0.0
2016-May-21 07:33N 39°17' W 076°36'0 0.0
2016-May-21 06:33N 39°17' W 076°36'0 0.0
2016-May-21 05:33N 39°17' W 076°36'0 0.0
2016-May-21 04:33N 39°17' W 076°36'0 0.0
2016-May-21 03:33N 39°17' W 076°36'0 0.0
2016-May-21 02:33N 39°17' W 076°36'0 0.0
2016-May-21 01:33N 39°17' W 076°36'0 0.0
2016-May-21 00:33N 39°17' W 076°36'0 0.0
2016-May-20 23:18N 39°17' W 076°36'0 0.0
2016-May-20 22:33N 39°17' W 076°36'0 0.0
2016-May-20 21:24N 39°17' W 076°36'0 0.0
2016-May-20 20:30N 39°17' W 076°36'0 0.0
2016-May-20 19:24N 39°17' W 076°36'0 0.0
2016-May-20 18:33N 39°17' W 076°36'0 0.0
2016-May-20 17:33N 39°17' W 076°36'0 0.0
2016-May-20 16:30N 39°17' W 076°36'0 0.0
2016-May-20 15:30N 39°17' W 076°36'0 0.0
2016-May-20 14:30N 39°17' W 076°36'0 0.0
2016-May-20 13:24N 39°17' W 076°36'0 0.0
2016-May-20 12:33N 39°17' W 076°36'0 0.0
2016-May-20 11:33N 39°17' W 076°36'0 0.0
2016-May-20 10:30N 39°17' W 076°36'0 0.0
2016-May-20 09:30N 39°17' W 076°36'0 0.0
2016-May-20 08:30N 39°17' W 076°36'0 0.0
2016-May-20 07:33N 39°17' W 076°36'0 0.0
2016-May-20 06:33N 39°17' W 076°36'0 0.0
2016-May-20 04:33N 39°17' W 076°36'0 0.0
2016-May-20 03:33N 39°17' W 076°36'0 0.0
2016-May-20 02:30N 39°17' W 076°36'0 0.0
2016-May-20 01:33N 39°17' W 076°36'0 0.0
2016-May-20 00:33N 39°17' W 076°36'0 0.0
2016-May-19 23:30N 39°17' W 076°36'0 0.0
2016-May-19 22:30N 39°17' W 076°36'0 0.0
2016-May-19 21:30N 39°17' W 076°36'0 0.0
2016-May-19 20:33N 39°17' W 076°36'0 0.0
2016-May-19 19:33N 39°17' W 076°36'0 0.1
2016-May-19 18:33N 39°17' W 076°36'0 0.1
2016-May-19 17:33N 39°17' W 076°36'0 0.0
2016-May-19 16:30N 39°17' W 076°36'0 0.0
2016-May-19 15:33N 39°17' W 076°36'0 0.0
2016-May-19 14:33N 39°17' W 076°36'0 0.0
2016-May-19 13:30N 39°17' W 076°36'0 0.0
2016-May-19 12:30N 39°17' W 076°36'0 0.0
2016-May-19 11:30N 39°17' W 076°36'0 0.0
2016-May-19 10:33N 39°17' W 076°36'0 0.0
2016-May-19 09:30N 39°17' W 076°36'0 0.0
2016-May-19 08:30N 39°17' W 076°36'0 0.0
2016-May-19 07:30N 39°17' W 076°36'0 0.0
2016-May-19 06:30N 39°17' W 076°36'0 0.0
2016-May-19 05:33N 39°17' W 076°36'0 0.0
2016-May-19 04:33N 39°17' W 076°36'0 0.0
2016-May-19 03:33N 39°17' W 076°36'0 0.0
2016-May-19 02:30N 39°17' W 076°36'0 0.0
2016-May-19 01:30N 39°17' W 076°36'0 0.0
2016-May-19 00:30N 39°17' W 076°36'0 0.0
2016-May-18 23:30N 39°17' W 076°36'0 0.0
2016-May-18 22:30N 39°17' W 076°36'0 0.0
2016-May-18 21:33N 39°17' W 076°36'0 0.0
2016-May-18 20:33N 39°17' W 076°36'0 0.0
2016-May-18 19:24N 39°17' W 076°36'0 0.0
2016-May-18 18:30N 39°17' W 076°36'  
Track history (hours):
 
Tides and Currents Weather Stations Pressure Air Temp Water Temp Dewpoint Dewpoint Depression Visibility Wind Speed Wind Dir Waves Ship Positions

Bella Una

Owner: Bella Una, LLC, Fort Lauderdale, FL. More information available from US FCC via Universal Licensing System and Coast Guard Vessel Documentation Center.

Last reported at 2016-May-28 18:13 UTC. Time now 2016-May-29 03:56 UTC.
Position N 42°22' W 071°03'.

Length 39 m; draft 2.2 m.

Type: Pleasure craft. MMSI: 366609000.

Date/timePositionNaut miles runAvg speedWind from/ knotsBaromVisibWave heightAir tempDewpointWater temp
2016-May-28 18:13N 42°22' W 071°03'0 0.0
2016-May-28 17:31N 42°22' W 071°03'0 0.0
2016-May-28 16:25N 42°22' W 071°03'0 0.0
2016-May-28 14:31N 42°22' W 071°03'0 0.0
2016-May-28 13:31N 42°22' W 071°03'0 0.0
2016-May-28 12:31N 42°22' W 071°03'0 0.0
2016-May-28 11:31N 42°22' W 071°03'0 0.0
2016-May-28 04:13N 42°22' W 071°03'0 0.0
2016-May-28 03:31N 42°22' W 071°03'0 0.0
2016-May-28 02:31N 42°22' W 071°03'0 0.0
2016-May-28 01:25N 42°22' W 071°03'0 0.0
2016-May-28 00:25N 42°22' W 071°03'0 0.0
2016-May-27 17:22N 42°22' W 071°03'0 0.3
2016-May-27 16:31N 42°22' W 071°03'0 0.3
2016-May-27 15:31N 42°22' W 071°03'0 0.0
2016-May-27 14:31N 42°22' W 071°03'0 0.0
2016-May-27 13:31N 42°22' W 071°03'0 0.0
2016-May-27 12:31N 42°22' W 071°03'0 0.0
2016-May-27 11:31N 42°22' W 071°03'0 0.0
2016-May-27 10:25N 42°22' W 071°03'0 0.0
2016-May-27 05:31N 42°22' W 071°03'0 0.0
2016-May-27 04:31N 42°22' W 071°03'0 0.0
2016-May-27 03:25N 42°22' W 071°03'0 0.0
2016-May-27 02:25N 42°22' W 071°03'0 0.0
2016-May-27 01:31N 42°22' W 071°03'0 0.0
2016-May-27 00:25N 42°22' W 071°03'0 0.0
2016-May-26 23:31N 42°22' W 071°03'0 0.0
2016-May-26 22:34N 42°22' W 071°03'0 0.0
2016-May-26 21:33N 42°22' W 071°03'0 0.0
2016-May-26 20:32N 42°22' W 071°03'0 0.0
2016-May-26 19:33N 42°22' W 071°03'0 0.0
2016-May-26 18:34N 42°22' W 071°03'0 0.0
2016-May-26 17:33N 42°22' W 071°03'0 0.4
2016-May-26 16:33N 42°22' W 071°03'0 0.4
2016-May-26 15:33N 42°22' W 071°03'0 0.0
2016-May-26 14:33N 42°22' W 071°03'0 0.0
2016-May-26 13:33N 42°22' W 071°03'0 0.0
2016-May-26 12:33N 42°22' W 071°03'0 0.0
2016-May-26 11:31N 42°22' W 071°03'0 0.0
2016-May-26 10:33N 42°22' W 071°03'0 0.0
2016-May-26 09:33N 42°22' W 071°03'0 0.0
2016-May-26 08:33N 42°22' W 071°03'0 0.0
2016-May-26 07:34N 42°22' W 071°03'0 0.0
2016-May-26 06:33N 42°22' W 071°03'0 0.0
2016-May-26 05:34N 42°22' W 071°03'0 0.0
2016-May-26 04:33N 42°22' W 071°03'0 0.0
2016-May-26 03:33N 42°22' W 071°03'0 0.0
2016-May-26 02:33N 42°22' W 071°03'0 0.0
2016-May-26 01:33N 42°22' W 071°03'0 0.0
2016-May-26 00:33N 42°22' W 071°03'0 0.0
2016-May-25 23:33N 42°22' W 071°03'1 0.6
2016-May-25 22:33N 42°21' W 071°02'10 9.7
2016-May-25 21:33N 42°19' W 070°50'20310.4
2016-May-25 02:05N 39°47' W 073°49'712.7
2016-May-25 01:33N 39°42' W 073°55'1312.9
2016-May-25 00:33N 39°32' W 074°05'1612.7
2016-May-24 23:16N 39°19' W 074°18'43 8.7
2016-May-24 18:19N 39°05' W 075°11'1013.1
2016-May-24 17:34N 39°14' W 075°18'1211.6
2016-May-24 16:33N 39°22' W 075°28'10 9.8
2016-May-24 15:33N 39°31' W 075°33'1010.5
2016-May-24 14:34N 39°32' W 075°47'1212.5
2016-May-24 13:33N 39°26' W 076°01'1313.2
2016-May-24 12:33N 39°17' W 076°14'1210.4
2016-May-24 11:26N 39°11' W 076°26'910.5
2016-May-24 10:33N 39°17' W 076°35'1 1.1
2016-May-24 09:30N 39°17' W 076°36'0 0.0
2016-May-24 08:33N 39°17' W 076°36'0 0.1
2016-May-24 07:33N 39°17' W 076°36'0 0.1
2016-May-24 06:33N 39°17' W 076°36'0 0.0
2016-May-24 05:33N 39°17' W 076°36'0 0.0
2016-May-24 04:30N 39°17' W 076°36'0 0.0
2016-May-24 03:33N 39°17' W 076°36'0 0.0
2016-May-24 02:30N 39°17' W 076°36'0 0.0
2016-May-24 01:30N 39°17' W 076°36'0 0.0
2016-May-24 00:33N 39°17' W 076°36'0 0.0
2016-May-23 23:30N 39°17' W 076°36'0 0.0
2016-May-23 22:30N 39°17' W 076°36'0 0.0
2016-May-23 21:27N 39°17' W 076°36'0 0.0
2016-May-23 20:30N 39°17' W 076°36'0 0.0
2016-May-23 19:30N 39°17' W 076°36'0 0.0
2016-May-23 18:30N 39°17' W 076°36'0 0.0
2016-May-23 17:33N 39°17' W 076°36'0 0.0
2016-May-23 16:24N 39°17' W 076°36'0 0.0
2016-May-23 15:30N 39°17' W 076°36'0 0.0
2016-May-23 14:30N 39°17' W 076°36'0 0.0
2016-May-23 13:33N 39°17' W 076°36'0 0.0
2016-May-23 12:12N 39°17' W 076°36'0 0.0
2016-May-22 20:06N 39°17' W 076°36'0 0.0
2016-May-22 19:33N 39°17' W 076°36'0 0.0
2016-May-22 18:33N 39°17' W 076°36'0 0.0
2016-May-22 17:30N 39°17' W 076°36'0 0.0
2016-May-22 16:30N 39°17' W 076°36'0 0.0
2016-May-22 15:30N 39°17' W 076°36'0 0.0
2016-May-22 14:06N 39°17' W 076°36'0 0.0
2016-May-22 13:30N 39°17' W 076°36'0 0.0
2016-May-22 12:30N 39°17' W 076°36'0 0.0
2016-May-22 11:30N 39°17' W 076°36'0 0.1
2016-May-22 10:24N 39°17' W 076°36'0 0.1
2016-May-22 09:30N 39°17' W 076°36'0 0.0
2016-May-22 08:27N 39°17' W 076°36'0 0.0
2016-May-22 07:24N 39°17' W 076°36'0 0.0
2016-May-22 06:24N 39°17' W 076°36'0 0.0
2016-May-22 05:33N 39°17' W 076°36'0 0.0
2016-May-22 04:24N 39°17' W 076°36'0 0.0
2016-May-22 03:06N 39°17' W 076°36'0 0.1
2016-May-22 02:24N 39°17' W 076°36'0 0.1
2016-May-22 01:12N 39°17' W 076°36'0 0.0
2016-May-22 00:30N 39°17' W 076°36'0 0.0
2016-May-21 23:33N 39°17' W 076°36'0 0.0
2016-May-21 22:30N 39°17' W 076°36'0 0.0
2016-May-21 21:24N 39°17' W 076°36'0 0.0
2016-May-21 20:30N 39°17' W 076°36'0 0.0
2016-May-21 19:30N 39°17' W 076°36'0 0.1
2016-May-21 18:30N 39°17' W 076°36'0 0.1
2016-May-21 17:33N 39°17' W 076°36'0 0.0
2016-May-21 16:30N 39°17' W 076°36'0 0.0
2016-May-21 15:33N 39°17' W 076°36'0 0.0
2016-May-21 14:30N 39°17' W 076°36'0 0.0
2016-May-21 13:33N 39°17' W 076°36'0 0.0
2016-May-21 12:18N 39°17' W 076°36'0 0.1
2016-May-21 11:18N 39°17' W 076°36'0 0.1
2016-May-21 10:30N 39°17' W 076°36'0 0.0
2016-May-21 09:30N 39°17' W 076°36'0 0.0
2016-May-21 08:33N 39°17' W 076°36'0 0.0
2016-May-21 07:33N 39°17' W 076°36'0 0.0
2016-May-21 06:33N 39°17' W 076°36'0 0.0
2016-May-21 05:33N 39°17' W 076°36'0 0.0
2016-May-21 04:33N 39°17' W 076°36'0 0.0
2016-May-21 03:33N 39°17' W 076°36'0 0.0
2016-May-21 02:33N 39°17' W 076°36'0 0.0
2016-May-21 01:33N 39°17' W 076°36'0 0.0
2016-May-21 00:33N 39°17' W 076°36'0 0.0
2016-May-20 23:18N 39°17' W 076°36'0 0.0
2016-May-20 22:33N 39°17' W 076°36'0 0.0
2016-May-20 21:24N 39°17' W 076°36'0 0.0
2016-May-20 20:30N 39°17' W 076°36'0 0.0
2016-May-20 19:24N 39°17' W 076°36'0 0.0
2016-May-20 18:33N 39°17' W 076°36'0 0.0
2016-May-20 17:33N 39°17' W 076°36'0 0.0
2016-May-20 16:30N 39°17' W 076°36'0 0.0
2016-May-20 15:30N 39°17' W 076°36'0 0.0
2016-May-20 14:30N 39°17' W 076°36'0 0.0
2016-May-20 13:24N 39°17' W 076°36'0 0.0
2016-May-20 12:33N 39°17' W 076°36'0 0.0
2016-May-20 11:33N 39°17' W 076°36'0 0.0
2016-May-20 10:30N 39°17' W 076°36'0 0.0
2016-May-20 09:30N 39°17' W 076°36'0 0.0
2016-May-20 08:30N 39°17' W 076°36'0 0.0
2016-May-20 07:33N 39°17' W 076°36'0 0.0
2016-May-20 06:33N 39°17' W 076°36'0 0.0
2016-May-20 04:33N 39°17' W 076°36'0 0.0
2016-May-20 03:33N 39°17' W 076°36'0 0.0
2016-May-20 02:30N 39°17' W 076°36'0 0.0
2016-May-20 01:33N 39°17' W 076°36'0 0.0
2016-May-20 00:33N 39°17' W 076°36'0 0.0
2016-May-19 23:30N 39°17' W 076°36'0 0.0
2016-May-19 22:30N 39°17' W 076°36'0 0.0
2016-May-19 21:30N 39°17' W 076°36'0 0.0
2016-May-19 20:33N 39°17' W 076°36'0 0.0
2016-May-19 19:33N 39°17' W 076°36'0 0.1
2016-May-19 18:33N 39°17' W 076°36'0 0.1
2016-May-19 17:33N 39°17' W 076°36'0 0.0
2016-May-19 16:30N 39°17' W 076°36'0 0.0
2016-May-19 15:33N 39°17' W 076°36'0 0.0
2016-May-19 14:33N 39°17' W 076°36'0 0.0
2016-May-19 13:30N 39°17' W 076°36'0 0.0
2016-May-19 12:30N 39°17' W 076°36'0 0.0
2016-May-19 11:30N 39°17' W 076°36'0 0.0
2016-May-19 10:33N 39°17' W 076°36'0 0.0
2016-May-19 09:30N 39°17' W 076°36'0 0.0
2016-May-19 08:30N 39°17' W 076°36'0 0.0
2016-May-19 07:30N 39°17' W 076°36'0 0.0
2016-May-19 06:30N 39°17' W 076°36'0 0.0
2016-May-19 05:33N 39°17' W 076°36'0 0.0
2016-May-19 04:33N 39°17' W 076°36'0 0.0
2016-May-19 03:33N 39°17' W 076°36'0 0.0
2016-May-19 02:30N 39°17' W 076°36'0 0.0
2016-May-19 01:30N 39°17' W 076°36'0 0.0
2016-May-19 00:30N 39°17' W 076°36'0 0.0
2016-May-18 23:30N 39°17' W 076°36'0 0.0
2016-May-18 22:30N 39°17' W 076°36'0 0.0
2016-May-18 21:33N 39°17' W 076°36'0 0.0
2016-May-18 20:33N 39°17' W 076°36'0 0.0
2016-May-18 19:24N 39°17' W 076°36'0 0.0
2016-May-18 18:30N 39°17' W 076°36'  

Dump ship's entire track history